Ludlow Falls, Ohio
Current Conditions -  °F | °C
As of 9:56 PM on Monday 26 Jan 2015 (Local Time) from KDAY Reporting Station
Broken Clouds Broken Clouds  
Wind Chill:   Ceiling: 9000
Heat Index: 14°   Visibility: 8mi
Dew Point: 10°   Wind: 5mph
Humidity: 84%   Direction: 60°ENE
Pressure: 29.94"   Gusts: NA
Location:  40°N, 84.34°W
Report Text: KDAY 270256Z 06004KT 8SM BKN090 M10/M12 A2994 RMK AO2 SLP156 T11001122 51005
Loading
Personal Weather Stations






























Interactive Weather Map New forecast layout! Learn more

10-Day Weather Forecast

Advertisements
Track Severe Weather on mobile